createdAt,value
2019-04-21T00:01:57.838Z,100.00
2019-04-21T00:04:40.579Z,100.00
2019-04-21T00:07:33.211Z,100.00
2019-04-21T00:12:18.281Z,100.00
2019-04-21T00:14:39.540Z,100.00
2019-04-21T00:17:05.860Z,100.00
2019-04-21T00:19:33.975Z,100.00
2019-04-21T00:22:13.871Z,100.00
2019-04-21T00:24:45.668Z,100.00
2019-04-21T00:27:22.941Z,100.00
2019-04-21T00:29:51.974Z,100.00
2019-04-21T00:32:21.815Z,100.00
2019-04-21T00:34:36.388Z,100.00
2019-04-21T00:37:15.677Z,100.00
2019-04-21T00:40:02.229Z,100.00
2019-04-21T00:42:26.050Z,100.00
2019-04-21T00:44:51.947Z,100.00
2019-04-21T00:47:30.301Z,100.00
2019-04-21T00:50:00.824Z,100.00
2019-04-21T00:55:23.419Z,100.00
2019-04-21T00:57:45.265Z,100.00
2019-04-21T01:00:13.727Z,100.00
2019-04-21T01:02:45.530Z,100.00
2019-04-21T01:05:16.698Z,100.00
2019-04-21T01:07:41.989Z,100.00
2019-04-21T01:10:06.321Z,100.00
2019-04-21T01:12:43.445Z,100.00
2019-04-21T01:15:18.317Z,100.00
2019-04-21T01:17:46.272Z,100.00
2019-04-21T01:20:10.532Z,100.00
2019-04-21T01:22:26.853Z,100.00
2019-04-21T01:25:04.319Z,100.00
2019-04-21T01:27:50.844Z,100.00
2019-04-21T01:30:20.763Z,100.00
2019-04-21T01:32:49.408Z,100.00
2019-04-21T01:35:21.171Z,100.00
2019-04-21T01:38:00.083Z,100.00
2019-04-21T01:40:22.903Z,100.00
2019-04-21T01:42:52.938Z,100.00
2019-04-21T01:45:20.047Z,100.00
2019-04-21T01:47:46.248Z,100.00
2019-04-21T01:50:18.411Z,100.00
2019-04-21T01:52:56.042Z,100.00
2019-04-21T01:55:43.120Z,100.00
2019-04-21T01:58:09.765Z,100.00
2019-04-21T02:00:56.862Z,100.00
2019-04-21T02:03:54.527Z,100.00
2019-04-21T02:06:13.678Z,100.00
2019-04-21T02:08:34.611Z,100.00
2019-04-21T02:13:35.174Z,100.00
2019-04-21T02:16:06.518Z,100.00
2019-04-21T02:18:33.333Z,100.00
2019-04-21T02:20:55.430Z,100.00
2019-04-21T02:26:10.124Z,100.00
2019-04-21T02:28:50.454Z,100.00
2019-04-21T02:33:55.837Z,100.00
2019-04-21T02:36:51.406Z,100.00
2019-04-21T02:39:00.238Z,100.00
2019-04-21T02:41:18.766Z,100.00
2019-04-21T02:43:54.319Z,100.00
2019-04-21T02:46:27.443Z,100.00
2019-04-21T02:48:56.444Z,100.00
2019-04-21T02:51:30.852Z,100.00
2019-04-21T02:54:28.892Z,100.00
2019-04-21T02:56:29.796Z,100.00
2019-04-21T03:04:13.247Z,100.00
2019-04-21T03:07:01.635Z,100.00
2019-04-21T03:09:43.222Z,100.00
2019-04-21T03:12:05.526Z,100.00
2019-04-21T03:14:35.961Z,100.00
2019-04-21T03:16:57.677Z,100.00
2019-04-21T03:19:36.480Z,100.00
2019-04-21T03:22:06.662Z,100.00
2019-04-21T03:24:39.923Z,100.00
2019-04-21T03:27:10.404Z,100.00
2019-04-21T03:29:36.708Z,100.00
2019-04-21T03:35:02.483Z,100.00
2019-04-21T03:37:14.062Z,100.00
2019-04-21T03:39:37.229Z,100.00
2019-04-21T03:44:32.220Z,100.00
2019-04-21T03:47:10.946Z,100.00
2019-04-21T03:49:45.466Z,100.00
2019-04-21T03:52:11.510Z,100.00
2019-04-21T03:54:37.377Z,100.00
2019-04-21T03:59:38.456Z,100.00
2019-04-21T04:02:23.092Z,100.00
2019-04-21T04:10:08.369Z,100.00
2019-04-21T04:12:34.393Z,100.00
2019-04-21T04:15:15.783Z,100.00
2019-04-21T04:17:36.371Z,100.00
2019-04-21T04:20:06.137Z,100.00
2019-04-21T04:22:41.624Z,100.00
2019-04-21T04:27:54.036Z,100.00
2019-04-21T04:30:12.459Z,100.00
2019-04-21T04:32:46.849Z,100.00
2019-04-21T04:35:14.473Z,100.00
2019-04-21T04:37:51.073Z,100.00
2019-04-21T04:40:13.686Z,100.00
2019-04-21T04:43:07.818Z,100.00
2019-04-21T04:45:28.274Z,100.00
2019-04-21T04:47:49.891Z,100.00
2019-04-21T04:50:24.450Z,100.00
2019-04-21T04:53:07.422Z,100.00
2019-04-21T04:55:19.082Z,100.00
2019-04-21T05:00:25.847Z,100.00
2019-04-21T05:08:16.515Z,100.00
2019-04-21T05:10:31.469Z,100.00
2019-04-21T05:20:20.197Z,100.00
2019-04-21T05:22:47.408Z,100.00
2019-04-21T05:25:10.987Z,100.00
2019-04-21T05:27:40.551Z,100.00
2019-04-21T05:30:24.803Z,100.00
2019-04-21T05:32:52.520Z,100.00
2019-04-21T05:35:40.542Z,100.00
2019-04-21T05:38:10.227Z,100.00
2019-04-21T05:40:34.743Z,100.00
2019-04-21T05:43:09.200Z,100.00
2019-04-21T05:45:46.040Z,100.00
2019-04-21T05:50:44.126Z,100.00
2019-04-21T05:53:25.374Z,100.00
2019-04-21T05:55:50.240Z,100.00
2019-04-21T05:58:11.270Z,100.00
2019-04-21T06:03:30.727Z,100.00
2019-04-21T06:06:08.595Z,100.00
2019-04-21T06:08:32.917Z,100.00
2019-04-21T06:11:00.176Z,100.00
2019-04-21T06:13:41.016Z,100.00
2019-04-21T06:16:03.899Z,100.00
2019-04-21T06:21:06.944Z,100.00
2019-04-21T06:23:36.036Z,100.00
2019-04-21T06:26:19.303Z,100.00
2019-04-21T06:33:39.423Z,100.00
2019-04-21T06:39:00.338Z,100.00
2019-04-21T06:41:26.665Z,94.82
2019-04-21T06:43:56.325Z,86.54
2019-04-21T06:46:25.857Z,87.20
2019-04-21T06:48:55.948Z,87.41
2019-04-21T06:51:23.938Z,86.28
2019-04-21T06:53:59.535Z,84.69
2019-04-21T06:56:24.029Z,80.27
2019-04-21T06:58:53.489Z,80.79
2019-04-21T07:01:25.231Z,76.08
2019-04-21T07:03:58.428Z,74.95
2019-04-21T07:06:23.810Z,71.97
2019-04-21T07:09:02.908Z,66.79
2019-04-21T07:11:18.758Z,61.75
2019-04-21T07:14:13.533Z,57.18
2019-04-21T07:16:32.054Z,53.29
2019-04-21T07:19:11.361Z,46.00
2019-04-21T07:21:34.476Z,42.38
2019-04-21T07:24:05.781Z,37.85
2019-04-21T07:26:32.857Z,37.85
2019-04-21T07:29:09.063Z,35.97
2019-04-21T07:31:43.148Z,35.30
2019-04-21T07:34:09.083Z,34.20
2019-04-21T07:36:46.413Z,35.02
2019-04-21T07:39:01.310Z,30.39
2019-04-21T07:41:25.163Z,31.35
2019-04-21T07:44:00.299Z,30.80
2019-04-21T07:46:27.314Z,30.80
2019-04-21T07:49:06.636Z,31.97
2019-04-21T07:51:42.015Z,28.75
2019-04-21T07:54:18.410Z,27.23
2019-04-21T07:56:28.778Z,27.08
2019-04-21T07:59:16.459Z,27.74
2019-04-21T08:01:43.880Z,27.07
2019-04-21T08:04:33.286Z,27.83
2019-04-21T08:06:46.541Z,26.58
2019-04-21T08:09:12.595Z,27.62
2019-04-21T08:11:36.686Z,25.80
2019-04-21T08:14:19.511Z,26.07
2019-04-21T08:16:49.966Z,24.21
2019-04-21T08:19:13.085Z,25.47
2019-04-21T08:21:55.879Z,22.94
2019-04-21T08:24:18.166Z,24.24
2019-04-21T08:26:53.110Z,26.88
2019-04-21T08:29:29.723Z,22.52
2019-04-21T08:31:59.105Z,24.40
2019-04-21T08:34:22.667Z,25.90
2019-04-21T08:37:05.467Z,22.42
2019-04-21T08:39:21.468Z,21.90
2019-04-21T08:41:49.615Z,22.75
2019-04-21T08:44:26.230Z,22.41
2019-04-21T08:46:52.673Z,21.67
2019-04-21T08:49:22.197Z,20.26
2019-04-21T08:52:00.710Z,19.04
2019-04-21T08:54:43.180Z,19.90
2019-04-21T08:57:05.959Z,19.38
2019-04-21T08:59:54.335Z,19.60
2019-04-21T09:02:35.074Z,19.04
2019-04-21T09:05:09.344Z,19.75
2019-04-21T09:07:41.402Z,22.94
2019-04-21T09:10:05.564Z,19.36
2019-04-21T09:12:34.716Z,19.55
2019-04-21T09:15:08.609Z,18.69
2019-04-21T09:17:28.672Z,18.82
2019-04-21T09:20:13.783Z,18.65
2019-04-21T09:22:37.831Z,17.55
2019-04-21T09:25:03.421Z,18.38
2019-04-21T09:27:33.600Z,16.37
2019-04-21T09:29:54.037Z,16.38
2019-04-21T09:32:23.849Z,16.07
2019-04-21T09:34:51.312Z,17.05
2019-04-21T09:37:32.763Z,16.17
2019-04-21T09:39:53.573Z,16.42
2019-04-21T09:42:21.899Z,15.83
2019-04-21T09:44:55.604Z,16.64
2019-04-21T09:47:24.553Z,18.55
2019-04-21T09:49:51.948Z,18.90
2019-04-21T09:52:25.708Z,16.43
2019-04-21T09:55:01.171Z,15.21
2019-04-21T09:57:32.751Z,14.90
2019-04-21T10:00:02.186Z,14.81
2019-04-21T10:02:34.179Z,14.87
2019-04-21T10:04:52.778Z,16.75
2019-04-21T10:07:28.174Z,16.97
2019-04-21T10:09:52.426Z,17.40
2019-04-21T10:12:21.073Z,16.03
2019-04-21T10:14:49.630Z,16.09
2019-04-21T10:17:19.898Z,16.79
2019-04-21T10:19:48.578Z,15.93
2019-04-21T10:22:17.163Z,14.70
2019-04-21T10:24:46.739Z,16.44
2019-04-21T10:27:16.982Z,15.73
2019-04-21T10:29:47.241Z,15.66
2019-04-21T10:32:18.633Z,15.14
2019-04-21T10:34:47.518Z,15.55
2019-04-21T10:37:16.690Z,16.60
2019-04-21T10:39:45.487Z,16.44
2019-04-21T10:42:15.374Z,16.76
2019-04-21T10:44:45.156Z,14.76
2019-04-21T10:47:14.470Z,14.16
2019-04-21T10:49:44.614Z,13.72
2019-04-21T10:52:15.335Z,13.40
2019-04-21T10:55:07.105Z,13.80
2019-04-21T10:57:16.798Z,15.26
2019-04-21T10:59:47.965Z,14.00
2019-04-21T11:02:39.106Z,15.59
2019-04-21T11:05:09.072Z,13.98
2019-04-21T11:07:59.379Z,14.76
2019-04-21T11:10:16.209Z,14.95
2019-04-21T11:12:47.591Z,14.45
2019-04-21T11:15:15.131Z,17.04
2019-04-21T11:17:45.120Z,16.91
2019-04-21T11:20:15.062Z,16.49
2019-04-21T11:22:43.913Z,17.68
2019-04-21T11:25:12.924Z,17.18
2019-04-21T11:27:42.912Z,17.15
2019-04-21T11:30:11.759Z,17.60
2019-04-21T11:32:42.122Z,18.46
2019-04-21T11:35:10.696Z,20.16
2019-04-21T11:37:39.905Z,18.13
2019-04-21T11:40:11.390Z,18.33
2019-04-21T11:42:41.898Z,21.84
2019-04-21T11:45:22.097Z,21.95
2019-04-21T11:47:52.469Z,20.51
2019-04-21T11:50:21.167Z,20.14
2019-04-21T11:52:49.737Z,19.93
2019-04-21T11:55:18.751Z,19.41
2019-04-21T11:57:49.589Z,20.29
2019-04-21T12:00:17.813Z,20.10
2019-04-21T12:02:47.671Z,19.87
2019-04-21T12:05:17.333Z,15.94
2019-04-21T12:07:47.184Z,15.85
2019-04-21T12:10:15.831Z,15.49
2019-04-21T12:12:45.399Z,14.69
2019-04-21T12:15:14.333Z,13.17
2019-04-21T12:17:43.997Z,13.95
2019-04-21T12:20:13.133Z,14.72
2019-04-21T12:22:43.216Z,14.13
2019-04-21T12:25:13.619Z,13.21
2019-04-21T12:27:43.778Z,13.02
2019-04-21T12:30:15.665Z,12.83
2019-04-21T12:32:55.962Z,14.99
2019-04-21T12:35:26.011Z,15.21
2019-04-21T12:37:55.006Z,17.23
2019-04-21T12:40:24.850Z,15.85
2019-04-21T12:42:54.788Z,14.01
2019-04-21T12:45:24.029Z,16.70
2019-04-21T12:47:53.891Z,16.98
2019-04-21T12:50:23.623Z,18.56
2019-04-21T12:52:53.584Z,16.30
2019-04-21T12:55:30.527Z,15.66
2019-04-21T12:57:55.399Z,14.75
2019-04-21T13:00:24.826Z,17.41
2019-04-21T13:02:53.995Z,15.99
2019-04-21T13:05:22.730Z,14.66
2019-04-21T13:07:51.389Z,15.14
2019-04-21T13:10:20.509Z,14.28
2019-04-21T13:12:52.273Z,16.18
2019-04-21T13:15:21.843Z,13.83
2019-04-21T13:17:50.436Z,13.78
2019-04-21T13:20:19.348Z,13.90
2019-04-21T13:22:54.321Z,14.87
2019-04-21T13:25:23.582Z,16.98
2019-04-21T13:27:52.443Z,18.07
2019-04-21T13:30:22.306Z,19.64
2019-04-21T13:32:53.654Z,21.10
2019-04-21T13:35:23.293Z,23.00
2019-04-21T13:37:52.374Z,23.74
2019-04-21T13:40:53.367Z,22.24
2019-04-21T13:43:10.704Z,23.92
2019-04-21T13:45:39.572Z,25.16
2019-04-21T13:48:08.436Z,25.87
2019-04-21T13:50:37.364Z,25.16
2019-04-21T13:53:06.909Z,22.06
2019-04-21T13:55:38.941Z,21.92
2019-04-21T13:58:08.729Z,21.19
2019-04-21T14:00:37.981Z,21.92
2019-04-21T14:03:10.449Z,23.13
2019-04-21T14:05:40.265Z,22.55
2019-04-21T14:08:09.354Z,26.11
2019-04-21T14:11:11.292Z,27.91
2019-04-21T14:14:16.560Z,28.54
2019-04-21T14:17:22.486Z,28.49
2019-04-21T14:20:10.935Z,28.30
2019-04-21T14:23:27.763Z,30.41
2019-04-21T14:26:06.475Z,28.03
2019-04-21T14:29:11.363Z,28.40
2019-04-21T14:32:00.087Z,30.20
2019-04-21T14:35:04.968Z,29.69
2019-04-21T14:37:56.533Z,25.80
2019-04-21T14:41:02.197Z,24.88
2019-04-21T14:43:50.505Z,22.52
2019-04-21T14:46:57.455Z,19.85
2019-04-21T14:50:05.105Z,20.10
2019-04-21T14:53:15.867Z,18.88
2019-04-21T14:56:04.102Z,17.57
2019-04-21T14:59:09.165Z,16.92
2019-04-21T15:01:57.918Z,18.94
2019-04-21T15:05:04.023Z,18.85
2019-04-21T15:07:53.183Z,18.31
2019-04-21T15:10:58.867Z,18.23
2019-04-21T15:13:48.030Z,18.66
2019-04-21T15:16:52.976Z,19.13
2019-04-21T15:19:42.826Z,18.76
2019-04-21T15:22:48.309Z,18.36
2019-04-21T15:25:36.633Z,19.74
2019-04-21T15:28:42.543Z,18.18
2019-04-21T15:31:34.515Z,19.98
2019-04-21T15:34:38.224Z,18.84
2019-04-21T15:37:26.485Z,20.50
2019-04-21T15:40:40.681Z,20.02
2019-04-21T15:43:22.399Z,19.85
2019-04-21T15:46:29.143Z,20.67
2019-04-21T15:49:17.607Z,21.00
2019-04-21T15:52:22.368Z,20.82
2019-04-21T15:55:12.589Z,20.53
2019-04-21T15:58:28.432Z,21.15
2019-04-21T16:04:36.812Z,23.25
2019-04-21T16:07:42.354Z,24.57
2019-04-21T16:10:39.134Z,23.65
2019-04-21T16:13:37.332Z,23.54
2019-04-21T16:16:28.324Z,24.17
2019-04-21T16:19:33.338Z,26.39
2019-04-21T16:22:21.449Z,26.28
2019-04-21T16:25:26.739Z,27.93
2019-04-21T16:28:15.427Z,28.26
2019-04-21T16:31:20.425Z,30.18
2019-04-21T16:34:09.287Z,30.72
2019-04-21T16:37:17.439Z,32.29
2019-04-21T16:40:05.681Z,32.93
2019-04-21T16:43:10.501Z,34.76
2019-04-21T16:45:59.076Z,35.71
2019-04-21T16:49:04.161Z,37.32
2019-04-21T16:55:19.075Z,38.68
2019-04-21T16:58:34.781Z,40.37
2019-04-21T17:01:29.760Z,40.79
2019-04-21T17:04:34.285Z,40.96
2019-04-21T17:07:24.051Z,42.40
2019-04-21T17:10:29.022Z,43.38
2019-04-21T17:13:18.254Z,45.29
2019-04-21T17:19:20.205Z,45.32
2019-04-21T17:22:19.607Z,45.52
2019-04-21T17:28:09.829Z,48.13
2019-04-21T17:31:18.180Z,48.98
2019-04-21T17:34:10.392Z,50.53
2019-04-21T17:37:15.223Z,49.48
2019-04-21T17:40:05.635Z,49.60
2019-04-21T17:43:14.361Z,51.36
2019-04-21T17:45:59.940Z,55.77
2019-04-21T17:49:05.231Z,55.63
2019-04-21T17:52:00.496Z,57.76
2019-04-21T17:55:11.469Z,61.16
2019-04-21T17:58:09.710Z,62.08
2019-04-21T18:01:32.277Z,62.42
2019-04-21T18:07:45.321Z,62.16
2019-04-21T18:10:27.711Z,60.18
2019-04-21T18:13:19.214Z,61.10
2019-04-21T18:16:19.188Z,60.94
2019-04-21T18:19:12.980Z,63.73
2019-04-21T18:22:06.502Z,64.14
2019-04-21T18:25:27.120Z,61.49
2019-04-21T18:28:00.761Z,62.36
2019-04-21T18:31:07.090Z,62.40
2019-04-21T18:34:02.171Z,62.82
2019-04-21T18:37:32.107Z,65.86
2019-04-21T18:40:21.133Z,61.86
2019-04-21T18:44:02.822Z,60.10
2019-04-21T18:49:44.327Z,68.77
2019-04-21T18:53:08.997Z,67.81
2019-04-21T18:55:55.743Z,63.49
2019-04-21T18:58:54.184Z,61.83
2019-04-21T19:01:51.441Z,60.54
2019-04-21T19:04:53.639Z,59.88
2019-04-21T19:07:55.859Z,58.36
2019-04-21T19:11:10.318Z,58.20
2019-04-21T19:18:05.363Z,57.99
2019-04-21T19:23:11.557Z,65.39
2019-04-21T19:26:11.315Z,60.80
2019-04-21T19:29:19.449Z,60.36
2019-04-21T19:32:01.708Z,59.88
2019-04-21T19:34:52.572Z,60.07
2019-04-21T19:37:44.018Z,61.42
2019-04-21T19:40:56.862Z,62.49
2019-04-21T19:43:52.361Z,65.52
2019-04-21T19:47:00.033Z,73.02
2019-04-21T19:49:49.954Z,85.38
2019-04-21T19:52:47.275Z,83.68
2019-04-21T19:55:25.700Z,85.32
2019-04-21T19:58:33.814Z,86.18
2019-04-21T20:01:21.360Z,89.43
2019-04-21T20:04:34.355Z,92.65
2019-04-21T20:07:26.149Z,96.80
2019-04-21T20:10:39.609Z,100.00
2019-04-21T20:13:40.583Z,100.00
2019-04-21T20:16:37.556Z,100.00
2019-04-21T20:19:11.739Z,100.00
2019-04-21T20:22:14.712Z,100.00
2019-04-21T20:25:09.861Z,100.00
2019-04-21T20:28:21.346Z,100.00
2019-04-21T20:31:18.869Z,100.00
2019-04-21T20:34:28.282Z,100.00
2019-04-21T20:37:18.603Z,100.00
2019-04-21T20:40:05.345Z,100.00
2019-04-21T20:43:12.446Z,100.00
2019-04-21T20:46:12.550Z,100.00
2019-04-21T20:48:59.991Z,100.00
2019-04-21T20:52:17.306Z,100.00
2019-04-21T20:54:56.831Z,100.00
2019-04-21T20:57:57.769Z,100.00
2019-04-21T21:01:07.411Z,100.00
2019-04-21T21:03:58.045Z,100.00
2019-04-21T21:06:54.164Z,100.00
2019-04-21T21:10:00.422Z,100.00
2019-04-21T21:16:03.767Z,100.00
2019-04-21T21:21:48.563Z,100.00
2019-04-21T21:24:49.022Z,100.00
2019-04-21T21:27:41.795Z,100.00
2019-04-21T21:30:32.319Z,100.00
2019-04-21T21:33:50.739Z,100.00
2019-04-21T21:36:33.457Z,100.00
2019-04-21T21:42:34.359Z,100.00
2019-04-21T21:45:45.144Z,100.00
2019-04-21T21:48:40.690Z,100.00
2019-04-21T21:51:42.908Z,100.00
2019-04-21T21:54:22.157Z,100.00
2019-04-21T21:57:28.325Z,100.00
2019-04-21T22:00:17.555Z,100.00
2019-04-21T22:03:31.767Z,100.00
2019-04-21T22:06:19.152Z,100.00
2019-04-21T22:09:22.023Z,100.00
2019-04-21T22:12:11.014Z,100.00
2019-04-21T22:15:19.758Z,100.00
2019-04-21T22:18:27.302Z,100.00
2019-04-21T22:21:35.110Z,100.00
2019-04-21T22:24:09.198Z,100.00
2019-04-21T22:27:09.682Z,100.00
2019-04-21T22:30:01.407Z,100.00
2019-04-21T22:33:08.534Z,100.00
2019-04-21T22:36:02.274Z,100.00
2019-04-21T22:39:20.821Z,100.00
2019-04-21T22:42:00.916Z,100.00
2019-04-21T22:44:56.642Z,100.00
2019-04-21T22:47:46.530Z,100.00
2019-04-21T22:50:51.019Z,100.00
2019-04-21T22:53:43.686Z,100.00
2019-04-21T22:56:56.510Z,100.00
2019-04-21T22:59:35.642Z,100.00
2019-04-21T23:02:42.759Z,100.00
2019-04-21T23:05:36.280Z,100.00
2019-04-21T23:11:49.168Z,100.00
2019-04-21T23:14:58.540Z,100.00
2019-04-21T23:17:59.536Z,100.00
2019-04-21T23:21:03.419Z,100.00
2019-04-21T23:23:57.431Z,100.00
2019-04-21T23:26:56.092Z,100.00
2019-04-21T23:30:00.518Z,100.00
2019-04-21T23:32:50.527Z,100.00
2019-04-21T23:35:35.273Z,100.00
2019-04-21T23:38:43.515Z,100.00
2019-04-21T23:41:25.980Z,100.00
2019-04-21T23:44:38.679Z,100.00
2019-04-21T23:47:36.954Z,100.00
2019-04-21T23:50:40.811Z,100.00
2019-04-21T23:53:17.594Z,100.00
2019-04-21T23:56:32.927Z,100.00
2019-04-21T23:59:15.684Z,100.00
